sensor_id;sensor_type;location;lat;lon;timestamp;temperature;humidity
24049;DHT22;12250;50.956;4.746;2023-10-31T00:01:48;11.40;99.90
24049;DHT22;12250;50.956;4.746;2023-10-31T00:04:15;11.40;99.90
24049;DHT22;12250;50.956;4.746;2023-10-31T00:06:41;11.50;99.90
24049;DHT22;12250;50.956;4.746;2023-10-31T00:09:06;11.40;99.90
24049;DHT22;12250;50.956;4.746;2023-10-31T00:11:32;11.40;99.90
24049;DHT22;12250;50.956;4.746;2023-10-31T00:13:58;11.40;99.90
24049;DHT22;12250;50.956;4.746;2023-10-31T00:16:24;11.40;99.90
24049;DHT22;12250;50.956;4.746;2023-10-31T00:18:49;11.40;99.90
24049;DHT22;12250;50.956;4.746;2023-10-31T00:21:15;11.40;99.90
24049;DHT22;12250;50.956;4.746;2023-10-31T00:23:48;11.50;99.90
24049;DHT22;12250;50.956;4.746;2023-10-31T00:26:14;11.50;99.90
24049;DHT22;12250;50.956;4.746;2023-10-31T00:28:40;11.50;99.90
24049;DHT22;12250;50.956;4.746;2023-10-31T00:31:06;11.50;99.90
24049;DHT22;12250;50.956;4.746;2023-10-31T00:33:37;11.50;99.90
24049;DHT22;12250;50.956;4.746;2023-10-31T00:36:03;11.50;99.90
24049;DHT22;12250;50.956;4.746;2023-10-31T00:38:29;11.50;99.90
24049;DHT22;12250;50.956;4.746;2023-10-31T00:40:55;11.50;99.90
24049;DHT22;12250;50.956;4.746;2023-10-31T00:43:20;11.50;99.90
24049;DHT22;12250;50.956;4.746;2023-10-31T00:45:46;11.60;99.90
24049;DHT22;12250;50.956;4.746;2023-10-31T00:48:12;11.60;99.90
24049;DHT22;12250;50.956;4.746;2023-10-31T00:50:37;11.60;99.90
24049;DHT22;12250;50.956;4.746;2023-10-31T00:53:03;11.60;99.90
24049;DHT22;12250;50.956;4.746;2023-10-31T00:55:29;11.60;99.90
24049;DHT22;12250;50.956;4.746;2023-10-31T00:57:54;11.60;99.90
24049;DHT22;12250;50.956;4.746;2023-10-31T01:00:20;11.60;99.90
24049;DHT22;12250;50.956;4.746;2023-10-31T01:02:46;11.60;99.90
24049;DHT22;12250;50.956;4.746;2023-10-31T01:05:12;11.70;99.90
24049;DHT22;12250;50.956;4.746;2023-10-31T01:07:37;11.70;99.90
24049;DHT22;12250;50.956;4.746;2023-10-31T01:10:04;11.70;99.90
24049;DHT22;12250;50.956;4.746;2023-10-31T01:12:30;11.70;99.90
24049;DHT22;12250;50.956;4.746;2023-10-31T01:14:56;11.70;99.90
24049;DHT22;12250;50.956;4.746;2023-10-31T01:17:22;11.70;99.90
24049;DHT22;12250;50.956;4.746;2023-10-31T01:19:48;11.60;99.90
24049;DHT22;12250;50.956;4.746;2023-10-31T01:22:14;11.60;99.90
24049;DHT22;12250;50.956;4.746;2023-10-31T01:24:39;11.60;99.90
24049;DHT22;12250;50.956;4.746;2023-10-31T01:27:05;11.60;99.90
24049;DHT22;12250;50.956;4.746;2023-10-31T01:29:31;11.60;99.90
24049;DHT22;12250;50.956;4.746;2023-10-31T01:31:57;11.60;99.90
24049;DHT22;12250;50.956;4.746;2023-10-31T01:34:22;11.60;99.90
24049;DHT22;12250;50.956;4.746;2023-10-31T01:36:48;11.70;99.90
24049;DHT22;12250;50.956;4.746;2023-10-31T01:39:14;11.70;99.90
24049;DHT22;12250;50.956;4.746;2023-10-31T01:41:43;11.60;99.90
24049;DHT22;12250;50.956;4.746;2023-10-31T01:44:12;11.60;99.90
24049;DHT22;12250;50.956;4.746;2023-10-31T01:46:37;11.60;99.90
24049;DHT22;12250;50.956;4.746;2023-10-31T01:49:03;11.60;99.90
24049;DHT22;12250;50.956;4.746;2023-10-31T01:51:29;11.60;99.90
24049;DHT22;12250;50.956;4.746;2023-10-31T01:53:56;11.60;99.90
24049;DHT22;12250;50.956;4.746;2023-10-31T01:56:22;11.50;99.90
24049;DHT22;12250;50.956;4.746;2023-10-31T01:58:49;11.50;99.90
24049;DHT22;12250;50.956;4.746;2023-10-31T02:01:15;11.40;99.90
24049;DHT22;12250;50.956;4.746;2023-10-31T02:03:41;11.40;99.90
24049;DHT22;12250;50.956;4.746;2023-10-31T02:06:06;11.40;99.90
24049;DHT22;12250;50.956;4.746;2023-10-31T02:08:32;11.40;99.90
24049;DHT22;12250;50.956;4.746;2023-10-31T02:10:58;11.40;99.90
24049;DHT22;12250;50.956;4.746;2023-10-31T02:13:24;11.40;99.90
24049;DHT22;12250;50.956;4.746;2023-10-31T02:15:50;11.40;99.90
24049;DHT22;12250;50.956;4.746;2023-10-31T02:18:16;11.40;99.90
24049;DHT22;12250;50.956;4.746;2023-10-31T02:20:42;11.50;99.90
24049;DHT22;12250;50.956;4.746;2023-10-31T02:23:08;11.50;99.90
24049;DHT22;12250;50.956;4.746;2023-10-31T02:25:34;11.50;99.90
24049;DHT22;12250;50.956;4.746;2023-10-31T02:28:00;11.50;99.90
24049;DHT22;12250;50.956;4.746;2023-10-31T02:30:27;11.50;99.90
24049;DHT22;12250;50.956;4.746;2023-10-31T02:32:52;11.50;99.90
24049;DHT22;12250;50.956;4.746;2023-10-31T02:35:19;11.60;99.90
24049;DHT22;12250;50.956;4.746;2023-10-31T02:37:48;11.50;99.90
24049;DHT22;12250;50.956;4.746;2023-10-31T02:40:14;11.50;99.90
24049;DHT22;12250;50.956;4.746;2023-10-31T02:42:39;11.50;99.90
24049;DHT22;12250;50.956;4.746;2023-10-31T02:45:06;11.50;99.90
24049;DHT22;12250;50.956;4.746;2023-10-31T02:47:32;11.30;99.90
24049;DHT22;12250;50.956;4.746;2023-10-31T02:49:58;11.20;99.90
24049;DHT22;12250;50.956;4.746;2023-10-31T02:52:23;11.20;99.90
24049;DHT22;12250;50.956;4.746;2023-10-31T02:54:49;11.00;99.90
24049;DHT22;12250;50.956;4.746;2023-10-31T02:57:16;11.00;99.90
24049;DHT22;12250;50.956;4.746;2023-10-31T02:59:42;11.10;99.90
24049;DHT22;12250;50.956;4.746;2023-10-31T03:02:07;11.10;99.90
24049;DHT22;12250;50.956;4.746;2023-10-31T03:04:33;11.20;99.90
24049;DHT22;12250;50.956;4.746;2023-10-31T03:06:59;11.20;99.90
24049;DHT22;12250;50.956;4.746;2023-10-31T03:09:24;11.20;99.90
24049;DHT22;12250;50.956;4.746;2023-10-31T03:11:50;11.20;99.90
24049;DHT22;12250;50.956;4.746;2023-10-31T03:14:16;11.20;99.90
24049;DHT22;12250;50.956;4.746;2023-10-31T03:16:41;11.10;99.90
24049;DHT22;12250;50.956;4.746;2023-10-31T03:19:07;11.10;99.90
24049;DHT22;12250;50.956;4.746;2023-10-31T03:21:33;11.20;99.90
24049;DHT22;12250;50.956;4.746;2023-10-31T03:23:59;11.20;99.90
24049;DHT22;12250;50.956;4.746;2023-10-31T03:26:24;11.20;99.90
24049;DHT22;12250;50.956;4.746;2023-10-31T03:28:50;11.10;99.90
24049;DHT22;12250;50.956;4.746;2023-10-31T03:31:16;11.10;99.90
24049;DHT22;12250;50.956;4.746;2023-10-31T03:33:42;11.10;99.90
24049;DHT22;12250;50.956;4.746;2023-10-31T03:36:09;11.10;99.90
24049;DHT22;12250;50.956;4.746;2023-10-31T03:38:35;11.10;99.90
24049;DHT22;12250;50.956;4.746;2023-10-31T03:41:02;11.10;99.90
24049;DHT22;12250;50.956;4.746;2023-10-31T03:43:28;11.10;99.90
24049;DHT22;12250;50.956;4.746;2023-10-31T03:45:54;11.10;99.90
24049;DHT22;12250;50.956;4.746;2023-10-31T03:48:20;11.10;99.90
24049;DHT22;12250;50.956;4.746;2023-10-31T03:50:46;11.00;99.90
24049;DHT22;12250;50.956;4.746;2023-10-31T03:53:12;11.00;99.90
24049;DHT22;12250;50.956;4.746;2023-10-31T03:55:37;10.90;99.90
24049;DHT22;12250;50.956;4.746;2023-10-31T03:58:03;10.90;99.90
24049;DHT22;12250;50.956;4.746;2023-10-31T04:00:29;10.90;99.90
24049;DHT22;12250;50.956;4.746;2023-10-31T04:02:55;10.90;99.90
24049;DHT22;12250;50.956;4.746;2023-10-31T04:05:21;10.80;99.90
24049;DHT22;12250;50.956;4.746;2023-10-31T04:07:48;10.80;99.90
24049;DHT22;12250;50.956;4.746;2023-10-31T04:10:17;10.60;99.90
24049;DHT22;12250;50.956;4.746;2023-10-31T04:12:43;10.50;99.90
24049;DHT22;12250;50.956;4.746;2023-10-31T04:15:09;10.30;99.90
24049;DHT22;12250;50.956;4.746;2023-10-31T04:17:34;10.20;99.90
24049;DHT22;12250;50.956;4.746;2023-10-31T04:20:01;10.10;99.90
24049;DHT22;12250;50.956;4.746;2023-10-31T04:22:27;10.00;99.90
24049;DHT22;12250;50.956;4.746;2023-10-31T04:24:53;9.90;99.90
24049;DHT22;12250;50.956;4.746;2023-10-31T04:27:19;9.80;99.90
24049;DHT22;12250;50.956;4.746;2023-10-31T04:29:45;9.80;99.90
24049;DHT22;12250;50.956;4.746;2023-10-31T04:32:11;9.70;99.90
24049;DHT22;12250;50.956;4.746;2023-10-31T04:34:37;9.60;99.90
24049;DHT22;12250;50.956;4.746;2023-10-31T04:37:03;9.50;99.90
24049;DHT22;12250;50.956;4.746;2023-10-31T04:39:29;9.50;99.90
24049;DHT22;12250;50.956;4.746;2023-10-31T04:41:55;9.40;99.90
24049;DHT22;12250;50.956;4.746;2023-10-31T04:44:20;9.40;99.90
24049;DHT22;12250;50.956;4.746;2023-10-31T04:46:46;9.40;99.90
24049;DHT22;12250;50.956;4.746;2023-10-31T04:49:12;9.40;99.90
24049;DHT22;12250;50.956;4.746;2023-10-31T04:51:38;9.30;99.90
24049;DHT22;12250;50.956;4.746;2023-10-31T04:54:04;9.30;99.90
24049;DHT22;12250;50.956;4.746;2023-10-31T04:56:30;9.20;99.90
24049;DHT22;12250;50.956;4.746;2023-10-31T04:58:56;9.20;99.90
24049;DHT22;12250;50.956;4.746;2023-10-31T05:01:22;9.20;99.90
24049;DHT22;12250;50.956;4.746;2023-10-31T05:03:48;9.10;99.90
24049;DHT22;12250;50.956;4.746;2023-10-31T05:06:19;9.10;99.90
24049;DHT22;12250;50.956;4.746;2023-10-31T05:08:45;9.00;99.90
24049;DHT22;12250;50.956;4.746;2023-10-31T05:11:11;9.00;99.90
24049;DHT22;12250;50.956;4.746;2023-10-31T05:13:38;9.00;99.90
24049;DHT22;12250;50.956;4.746;2023-10-31T05:16:04;9.00;99.90
24049;DHT22;12250;50.956;4.746;2023-10-31T05:18:30;8.90;99.90
24049;DHT22;12250;50.956;4.746;2023-10-31T05:20:55;8.90;99.90
24049;DHT22;12250;50.956;4.746;2023-10-31T05:23:21;8.90;99.90
24049;DHT22;12250;50.956;4.746;2023-10-31T05:25:47;8.80;99.90
24049;DHT22;12250;50.956;4.746;2023-10-31T05:28:12;8.80;99.90
24049;DHT22;12250;50.956;4.746;2023-10-31T05:30:38;8.80;99.90
24049;DHT22;12250;50.956;4.746;2023-10-31T05:33:04;8.90;99.90
24049;DHT22;12250;50.956;4.746;2023-10-31T05:35:29;8.90;99.90
24049;DHT22;12250;50.956;4.746;2023-10-31T05:37:55;8.90;99.90
24049;DHT22;12250;50.956;4.746;2023-10-31T05:40:21;9.00;99.90
24049;DHT22;12250;50.956;4.746;2023-10-31T05:42:50;9.10;99.90
24049;DHT22;12250;50.956;4.746;2023-10-31T05:45:16;9.20;99.90
24049;DHT22;12250;50.956;4.746;2023-10-31T05:47:42;9.30;99.90
24049;DHT22;12250;50.956;4.746;2023-10-31T05:50:08;9.30;99.90
24049;DHT22;12250;50.956;4.746;2023-10-31T05:52:34;9.30;99.90
24049;DHT22;12250;50.956;4.746;2023-10-31T05:55:00;9.30;99.90
24049;DHT22;12250;50.956;4.746;2023-10-31T05:57:26;9.40;99.90
24049;DHT22;12250;50.956;4.746;2023-10-31T05:59:51;9.40;99.90
24049;DHT22;12250;50.956;4.746;2023-10-31T06:02:17;9.40;99.90
24049;DHT22;12250;50.956;4.746;2023-10-31T06:04:42;9.40;99.90
24049;DHT22;12250;50.956;4.746;2023-10-31T06:07:08;9.40;99.90
24049;DHT22;12250;50.956;4.746;2023-10-31T06:09:35;9.40;99.90
24049;DHT22;12250;50.956;4.746;2023-10-31T06:12:01;9.40;99.90
24049;DHT22;12250;50.956;4.746;2023-10-31T06:14:27;9.40;99.90
24049;DHT22;12250;50.956;4.746;2023-10-31T06:16:53;9.40;99.90
24049;DHT22;12250;50.956;4.746;2023-10-31T06:19:20;9.40;99.90
24049;DHT22;12250;50.956;4.746;2023-10-31T06:21:46;9.40;99.90
24049;DHT22;12250;50.956;4.746;2023-10-31T06:24:11;9.30;99.90
24049;DHT22;12250;50.956;4.746;2023-10-31T06:26:37;9.20;99.90
24049;DHT22;12250;50.956;4.746;2023-10-31T06:29:04;9.20;99.90
24049;DHT22;12250;50.956;4.746;2023-10-31T06:31:29;9.20;99.90
24049;DHT22;12250;50.956;4.746;2023-10-31T06:33:55;9.10;99.90
24049;DHT22;12250;50.956;4.746;2023-10-31T06:36:22;9.10;99.90
24049;DHT22;12250;50.956;4.746;2023-10-31T06:38:48;9.10;99.90
24049;DHT22;12250;50.956;4.746;2023-10-31T06:41:14;9.00;99.90
24049;DHT22;12250;50.956;4.746;2023-10-31T06:43:40;9.00;99.90
24049;DHT22;12250;50.956;4.746;2023-10-31T06:46:05;9.00;99.90
24049;DHT22;12250;50.956;4.746;2023-10-31T06:48:32;8.90;99.90
24049;DHT22;12250;50.956;4.746;2023-10-31T06:50:58;9.00;99.90
24049;DHT22;12250;50.956;4.746;2023-10-31T06:53:23;9.00;99.90
24049;DHT22;12250;50.956;4.746;2023-10-31T06:55:49;9.00;99.90
24049;DHT22;12250;50.956;4.746;2023-10-31T06:58:15;8.90;99.90
24049;DHT22;12250;50.956;4.746;2023-10-31T07:00:41;9.00;99.90
24049;DHT22;12250;50.956;4.746;2023-10-31T07:03:06;9.00;99.90
24049;DHT22;12250;50.956;4.746;2023-10-31T07:05:35;9.00;99.90
24049;DHT22;12250;50.956;4.746;2023-10-31T07:08:02;9.00;99.90
24049;DHT22;12250;50.956;4.746;2023-10-31T07:10:30;9.10;99.90
24049;DHT22;12250;50.956;4.746;2023-10-31T07:12:56;9.10;99.90
24049;DHT22;12250;50.956;4.746;2023-10-31T07:15:24;9.10;99.90
24049;DHT22;12250;50.956;4.746;2023-10-31T07:17:50;9.20;99.90
24049;DHT22;12250;50.956;4.746;2023-10-31T07:20:15;9.30;99.90
24049;DHT22;12250;50.956;4.746;2023-10-31T07:22:41;9.30;99.90
24049;DHT22;12250;50.956;4.746;2023-10-31T07:25:08;9.40;99.90
24049;DHT22;12250;50.956;4.746;2023-10-31T07:27:33;9.50;99.90
24049;DHT22;12250;50.956;4.746;2023-10-31T07:29:59;9.50;99.90
24049;DHT22;12250;50.956;4.746;2023-10-31T07:32:25;9.70;99.90
24049;DHT22;12250;50.956;4.746;2023-10-31T07:34:51;9.80;99.90
24049;DHT22;12250;50.956;4.746;2023-10-31T07:37:17;10.00;99.90
24049;DHT22;12250;50.956;4.746;2023-10-31T07:39:43;10.30;99.90
24049;DHT22;12250;50.956;4.746;2023-10-31T07:42:08;10.50;99.90
24049;DHT22;12250;50.956;4.746;2023-10-31T07:44:34;10.60;99.90
24049;DHT22;12250;50.956;4.746;2023-10-31T07:47:00;10.80;99.90
24049;DHT22;12250;50.956;4.746;2023-10-31T07:49:26;11.00;99.90
24049;DHT22;12250;50.956;4.746;2023-10-31T07:51:51;11.10;99.90
24049;DHT22;12250;50.956;4.746;2023-10-31T07:54:17;11.10;99.90
24049;DHT22;12250;50.956;4.746;2023-10-31T07:56:44;11.20;99.90
24049;DHT22;12250;50.956;4.746;2023-10-31T07:59:10;11.40;99.90
24049;DHT22;12250;50.956;4.746;2023-10-31T08:01:36;11.70;99.90
24049;DHT22;12250;50.956;4.746;2023-10-31T08:04:02;11.90;99.90
24049;DHT22;12250;50.956;4.746;2023-10-31T08:06:28;12.20;99.90
24049;DHT22;12250;50.956;4.746;2023-10-31T08:08:54;12.40;99.90
24049;DHT22;12250;50.956;4.746;2023-10-31T08:11:20;12.60;99.90
24049;DHT22;12250;50.956;4.746;2023-10-31T08:13:45;12.80;99.90
24049;DHT22;12250;50.956;4.746;2023-10-31T08:16:17;12.80;99.90
24049;DHT22;12250;50.956;4.746;2023-10-31T08:18:44;12.90;99.90
24049;DHT22;12250;50.956;4.746;2023-10-31T08:21:11;13.00;99.90
24049;DHT22;12250;50.956;4.746;2023-10-31T08:23:38;13.10;99.90
24049;DHT22;12250;50.956;4.746;2023-10-31T08:26:04;13.10;99.90
24049;DHT22;12250;50.956;4.746;2023-10-31T08:28:30;13.20;99.90
24049;DHT22;12250;50.956;4.746;2023-10-31T08:30:57;13.10;99.90
24049;DHT22;12250;50.956;4.746;2023-10-31T08:33:23;13.30;99.90
24049;DHT22;12250;50.956;4.746;2023-10-31T08:35:48;13.40;99.90
24049;DHT22;12250;50.956;4.746;2023-10-31T08:38:14;13.40;99.90
24049;DHT22;12250;50.956;4.746;2023-10-31T08:40:41;13.20;99.90
24049;DHT22;12250;50.956;4.746;2023-10-31T08:43:06;13.10;99.90
24049;DHT22;12250;50.956;4.746;2023-10-31T08:45:33;12.90;99.90
24049;DHT22;12250;50.956;4.746;2023-10-31T08:47:59;13.00;99.90
24049;DHT22;12250;50.956;4.746;2023-10-31T08:50:25;12.90;99.90
24049;DHT22;12250;50.956;4.746;2023-10-31T08:52:52;12.90;99.90
24049;DHT22;12250;50.956;4.746;2023-10-31T08:55:18;13.00;99.90
24049;DHT22;12250;50.956;4.746;2023-10-31T08:57:46;13.10;99.90
24049;DHT22;12250;50.956;4.746;2023-10-31T09:00:12;13.00;99.90
24049;DHT22;12250;50.956;4.746;2023-10-31T09:02:38;13.00;99.90
24049;DHT22;12250;50.956;4.746;2023-10-31T09:05:04;13.00;99.90
24049;DHT22;12250;50.956;4.746;2023-10-31T09:07:30;13.20;99.90
24049;DHT22;12250;50.956;4.746;2023-10-31T09:09:57;13.40;99.90
24049;DHT22;12250;50.956;4.746;2023-10-31T09:12:22;13.50;99.90
24049;DHT22;12250;50.956;4.746;2023-10-31T09:14:49;13.60;99.90
24049;DHT22;12250;50.956;4.746;2023-10-31T09:17:15;13.70;99.90
24049;DHT22;12250;50.956;4.746;2023-10-31T09:19:41;13.90;99.90
24049;DHT22;12250;50.956;4.746;2023-10-31T09:22:06;14.10;99.90
24049;DHT22;12250;50.956;4.746;2023-10-31T09:24:33;14.90;99.90
24049;DHT22;12250;50.956;4.746;2023-10-31T09:26:59;15.20;99.90
24049;DHT22;12250;50.956;4.746;2023-10-31T09:29:25;15.20;99.90
24049;DHT22;12250;50.956;4.746;2023-10-31T09:31:51;15.30;99.90
24049;DHT22;12250;50.956;4.746;2023-10-31T09:34:16;15.40;99.90
24049;DHT22;12250;50.956;4.746;2023-10-31T09:36:44;15.80;99.90
24049;DHT22;12250;50.956;4.746;2023-10-31T09:39:10;16.20;99.90
24049;DHT22;12250;50.956;4.746;2023-10-31T09:41:36;16.30;99.90
24049;DHT22;12250;50.956;4.746;2023-10-31T09:44:02;16.60;99.90
24049;DHT22;12250;50.956;4.746;2023-10-31T09:46:31;16.60;99.90
24049;DHT22;12250;50.956;4.746;2023-10-31T09:48:56;16.70;99.90
24049;DHT22;12250;50.956;4.746;2023-10-31T09:51:22;16.80;99.90
24049;DHT22;12250;50.956;4.746;2023-10-31T09:53:51;17.00;99.90
24049;DHT22;12250;50.956;4.746;2023-10-31T09:56:20;16.90;99.90
24049;DHT22;12250;50.956;4.746;2023-10-31T09:58:47;16.80;99.90
24049;DHT22;12250;50.956;4.746;2023-10-31T10:01:13;16.90;99.90
24049;DHT22;12250;50.956;4.746;2023-10-31T10:03:40;17.10;99.90
24049;DHT22;12250;50.956;4.746;2023-10-31T10:06:06;17.20;99.90
24049;DHT22;12250;50.956;4.746;2023-10-31T10:08:34;17.20;99.90
24049;DHT22;12250;50.956;4.746;2023-10-31T10:11:02;17.20;99.90
24049;DHT22;12250;50.956;4.746;2023-10-31T10:13:28;16.90;99.90
24049;DHT22;12250;50.956;4.746;2023-10-31T10:15:56;16.70;99.90
24049;DHT22;12250;50.956;4.746;2023-10-31T10:18:29;16.50;99.90
24049;DHT22;12250;50.956;4.746;2023-10-31T10:21:02;16.30;99.90
24049;DHT22;12250;50.956;4.746;2023-10-31T10:23:29;16.30;99.90
24049;DHT22;12250;50.956;4.746;2023-10-31T10:25:57;16.40;99.90
24049;DHT22;12250;50.956;4.746;2023-10-31T10:28:23;16.40;99.90
24049;DHT22;12250;50.956;4.746;2023-10-31T10:30:53;16.20;99.90
24049;DHT22;12250;50.956;4.746;2023-10-31T10:33:21;16.10;99.90
24049;DHT22;12250;50.956;4.746;2023-10-31T10:35:47;15.90;99.90
24049;DHT22;12250;50.956;4.746;2023-10-31T10:38:15;15.90;99.90
24049;DHT22;12250;50.956;4.746;2023-10-31T10:40:46;15.90;99.90
24049;DHT22;12250;50.956;4.746;2023-10-31T10:43:25;15.60;99.90
24049;DHT22;12250;50.956;4.746;2023-10-31T10:45:55;15.50;99.90
24049;DHT22;12250;50.956;4.746;2023-10-31T10:48:22;15.40;99.90
24049;DHT22;12250;50.956;4.746;2023-10-31T10:51:40;15.50;99.90
24049;DHT22;12250;50.956;4.746;2023-10-31T10:53:48;15.40;99.90
24049;DHT22;12250;50.956;4.746;2023-10-31T10:56:38;15.50;99.90
24049;DHT22;12250;50.956;4.746;2023-10-31T10:59:14;15.50;99.90
24049;DHT22;12250;50.956;4.746;2023-10-31T11:01:41;15.50;99.90
24049;DHT22;12250;50.956;4.746;2023-10-31T11:04:08;15.40;99.90
24049;DHT22;12250;50.956;4.746;2023-10-31T11:06:37;15.50;99.90
24049;DHT22;12250;50.956;4.746;2023-10-31T11:09:03;15.70;99.90
24049;DHT22;12250;50.956;4.746;2023-10-31T11:11:32;15.90;99.90
24049;DHT22;12250;50.956;4.746;2023-10-31T11:13:58;16.40;99.90
24049;DHT22;12250;50.956;4.746;2023-10-31T11:16:33;16.60;99.90
24049;DHT22;12250;50.956;4.746;2023-10-31T11:19:00;16.60;99.90
24049;DHT22;12250;50.956;4.746;2023-10-31T11:21:28;16.70;99.90
24049;DHT22;12250;50.956;4.746;2023-10-31T11:23:59;16.80;99.90
24049;DHT22;12250;50.956;4.746;2023-10-31T11:26:32;16.80;99.90
24049;DHT22;12250;50.956;4.746;2023-10-31T11:29:04;16.80;99.90
24049;DHT22;12250;50.956;4.746;2023-10-31T11:31:31;16.70;99.90
24049;DHT22;12250;50.956;4.746;2023-10-31T11:33:58;16.60;99.90
24049;DHT22;12250;50.956;4.746;2023-10-31T11:36:25;16.60;99.90
24049;DHT22;12250;50.956;4.746;2023-10-31T11:39:13;16.70;99.90
24049;DHT22;12250;50.956;4.746;2023-10-31T11:41:39;16.60;99.90
24049;DHT22;12250;50.956;4.746;2023-10-31T11:44:05;16.60;99.90
24049;DHT22;12250;50.956;4.746;2023-10-31T11:46:31;16.20;99.90
24049;DHT22;12250;50.956;4.746;2023-10-31T11:48:57;16.20;99.90
24049;DHT22;12250;50.956;4.746;2023-10-31T11:51:23;16.20;99.90
24049;DHT22;12250;50.956;4.746;2023-10-31T11:53:49;16.10;99.90
24049;DHT22;12250;50.956;4.746;2023-10-31T11:56:16;16.00;99.90
24049;DHT22;12250;50.956;4.746;2023-10-31T11:58:41;15.50;99.90
24049;DHT22;12250;50.956;4.746;2023-10-31T12:01:08;15.40;99.90
24049;DHT22;12250;50.956;4.746;2023-10-31T12:03:42;15.50;99.90
24049;DHT22;12250;50.956;4.746;2023-10-31T12:06:09;15.20;99.90
24049;DHT22;12250;50.956;4.746;2023-10-31T12:08:39;15.00;99.90
24049;DHT22;12250;50.956;4.746;2023-10-31T12:11:13;15.00;99.90
24049;DHT22;12250;50.956;4.746;2023-10-31T12:13:40;15.00;99.90
24049;DHT22;12250;50.956;4.746;2023-10-31T12:16:10;14.90;99.90
24049;DHT22;12250;50.956;4.746;2023-10-31T12:18:39;14.60;99.90
24049;DHT22;12250;50.956;4.746;2023-10-31T12:21:05;14.60;99.90
24049;DHT22;12250;50.956;4.746;2023-10-31T12:23:32;14.40;99.90
24049;DHT22;12250;50.956;4.746;2023-10-31T12:25:58;14.40;99.90
24049;DHT22;12250;50.956;4.746;2023-10-31T12:28:25;14.40;99.90
24049;DHT22;12250;50.956;4.746;2023-10-31T12:30:53;14.10;99.90
24049;DHT22;12250;50.956;4.746;2023-10-31T12:33:26;14.10;99.90
24049;DHT22;12250;50.956;4.746;2023-10-31T12:35:55;14.10;99.90
24049;DHT22;12250;50.956;4.746;2023-10-31T12:38:22;14.10;99.90
24049;DHT22;12250;50.956;4.746;2023-10-31T12:40:48;13.90;99.90
24049;DHT22;12250;50.956;4.746;2023-10-31T12:43:15;13.70;99.90
24049;DHT22;12250;50.956;4.746;2023-10-31T12:45:41;13.50;99.90
24049;DHT22;12250;50.956;4.746;2023-10-31T12:48:09;13.40;99.90
24049;DHT22;12250;50.956;4.746;2023-10-31T12:50:36;13.30;99.90
24049;DHT22;12250;50.956;4.746;2023-10-31T12:53:03;13.30;99.90
24049;DHT22;12250;50.956;4.746;2023-10-31T12:55:36;13.20;99.90
24049;DHT22;12250;50.956;4.746;2023-10-31T12:58:04;13.20;99.90
24049;DHT22;12250;50.956;4.746;2023-10-31T13:00:31;13.20;99.90
24049;DHT22;12250;50.956;4.746;2023-10-31T13:03:05;13.20;99.90
24049;DHT22;12250;50.956;4.746;2023-10-31T13:05:32;13.10;99.90
24049;DHT22;12250;50.956;4.746;2023-10-31T13:07:59;13.00;99.90
24049;DHT22;12250;50.956;4.746;2023-10-31T13:10:27;13.00;99.90
24049;DHT22;12250;50.956;4.746;2023-10-31T13:12:54;13.00;99.90
24049;DHT22;12250;50.956;4.746;2023-10-31T13:15:21;12.90;99.90
24049;DHT22;12250;50.956;4.746;2023-10-31T13:17:49;12.80;99.90
24049;DHT22;12250;50.956;4.746;2023-10-31T13:20:17;12.80;99.90
24049;DHT22;12250;50.956;4.746;2023-10-31T13:22:43;12.80;99.90
24049;DHT22;12250;50.956;4.746;2023-10-31T13:25:12;12.90;99.90
24049;DHT22;12250;50.956;4.746;2023-10-31T13:27:40;12.90;99.90
24049;DHT22;12250;50.956;4.746;2023-10-31T13:30:07;12.90;99.90
24049;DHT22;12250;50.956;4.746;2023-10-31T13:32:34;12.90;99.90
24049;DHT22;12250;50.956;4.746;2023-10-31T13:35:00;12.80;99.90
24049;DHT22;12250;50.956;4.746;2023-10-31T13:37:26;12.90;99.90
24049;DHT22;12250;50.956;4.746;2023-10-31T13:39:52;12.80;99.90
24049;DHT22;12250;50.956;4.746;2023-10-31T13:42:18;12.80;99.90
24049;DHT22;12250;50.956;4.746;2023-10-31T13:44:44;12.80;99.90
24049;DHT22;12250;50.956;4.746;2023-10-31T13:47:10;12.90;99.90
24049;DHT22;12250;50.956;4.746;2023-10-31T13:49:36;12.90;99.90
24049;DHT22;12250;50.956;4.746;2023-10-31T13:52:05;12.80;99.90
24049;DHT22;12250;50.956;4.746;2023-10-31T13:54:32;13.00;99.90
24049;DHT22;12250;50.956;4.746;2023-10-31T13:56:58;13.00;99.90
24049;DHT22;12250;50.956;4.746;2023-10-31T13:59:24;13.00;99.90
24049;DHT22;12250;50.956;4.746;2023-10-31T14:01:50;13.10;99.90
24049;DHT22;12250;50.956;4.746;2023-10-31T14:04:16;13.00;99.90
24049;DHT22;12250;50.956;4.746;2023-10-31T14:06:42;13.00;99.90
24049;DHT22;12250;50.956;4.746;2023-10-31T14:09:09;13.10;99.90
24049;DHT22;12250;50.956;4.746;2023-10-31T14:11:36;13.10;99.90
24049;DHT22;12250;50.956;4.746;2023-10-31T14:14:02;13.20;99.90
24049;DHT22;12250;50.956;4.746;2023-10-31T14:16:35;13.10;99.90
24049;DHT22;12250;50.956;4.746;2023-10-31T14:19:01;13.10;99.90
24049;DHT22;12250;50.956;4.746;2023-10-31T14:21:28;13.20;99.90
24049;DHT22;12250;50.956;4.746;2023-10-31T14:23:54;13.40;99.90
24049;DHT22;12250;50.956;4.746;2023-10-31T14:26:20;13.50;99.90
24049;DHT22;12250;50.956;4.746;2023-10-31T14:28:46;13.60;99.90
24049;DHT22;12250;50.956;4.746;2023-10-31T14:31:13;13.80;99.90
24049;DHT22;12250;50.956;4.746;2023-10-31T14:33:39;13.90;99.90
24049;DHT22;12250;50.956;4.746;2023-10-31T14:36:05;14.00;99.90
24049;DHT22;12250;50.956;4.746;2023-10-31T14:38:30;14.00;99.90
24049;DHT22;12250;50.956;4.746;2023-10-31T14:40:56;13.90;99.90
24049;DHT22;12250;50.956;4.746;2023-10-31T14:43:22;13.90;99.90
24049;DHT22;12250;50.956;4.746;2023-10-31T14:45:47;13.70;99.90
24049;DHT22;12250;50.956;4.746;2023-10-31T14:48:13;13.50;99.90
24049;DHT22;12250;50.956;4.746;2023-10-31T14:50:39;13.50;99.90
24049;DHT22;12250;50.956;4.746;2023-10-31T14:53:05;13.50;99.90
24049;DHT22;12250;50.956;4.746;2023-10-31T14:55:31;13.50;99.90
24049;DHT22;12250;50.956;4.746;2023-10-31T14:57:57;13.50;99.90
24049;DHT22;12250;50.956;4.746;2023-10-31T15:00:23;13.50;99.90
24049;DHT22;12250;50.956;4.746;2023-10-31T15:02:48;13.50;99.90
24049;DHT22;12250;50.956;4.746;2023-10-31T15:05:14;13.40;99.90
24049;DHT22;12250;50.956;4.746;2023-10-31T15:07:39;13.30;99.90
24049;DHT22;12250;50.956;4.746;2023-10-31T15:10:06;13.10;99.90
24049;DHT22;12250;50.956;4.746;2023-10-31T15:12:32;13.00;99.90
24049;DHT22;12250;50.956;4.746;2023-10-31T15:14:58;12.90;99.90
24049;DHT22;12250;50.956;4.746;2023-10-31T15:17:24;12.90;99.90
24049;DHT22;12250;50.956;4.746;2023-10-31T15:19:50;12.80;99.90
24049;DHT22;12250;50.956;4.746;2023-10-31T15:22:15;12.80;99.90
24049;DHT22;12250;50.956;4.746;2023-10-31T15:24:41;12.90;99.90
24049;DHT22;12250;50.956;4.746;2023-10-31T15:27:07;12.90;99.90
24049;DHT22;12250;50.956;4.746;2023-10-31T15:29:33;12.90;99.90
24049;DHT22;12250;50.956;4.746;2023-10-31T15:31:59;12.80;99.90